Time;durP1;ratioP1;P1;durP2;ratioP2;P2;SDS_P1;SDS_P2;PMS_P1;PMS_P2;Temp;Humidity;BMP_temperature;BMP_pressure;BME280_temperature;BME280_humidity;BME280_pressure;Samples;Min_cycle;Max_cycle;Signal;HPM_P1;HPM_P2
2022/07/07 00:00:58;;;;;;;1.90;1.30;;;;;;;18.11;77.62;101079.45;105702;1270;60868;-86
2022/07/07 00:03:27;;;;;;;2.50;1.40;;;;;;;18.10;77.56;101075.38;105953;1269;70511;-86
2022/07/07 00:05:56;;;;;;;3.70;1.40;;;;;;;18.09;77.13;101074.08;106399;1270;74727;-85
2022/07/07 00:08:26;;;;;;;2.40;1.20;;;;;;;18.06;76.99;101070.46;106162;1270;59941;-85
2022/07/07 00:10:56;;;;;;;3.80;1.50;;;;;;;18.05;77.02;101073.23;105589;1270;59568;-84
2022/07/07 00:13:25;;;;;;;2.40;1.30;;;;;;;18.01;76.90;101077.05;104259;1270;1943837;-85
2022/07/07 00:15:54;;;;;;;2.40;1.10;;;;;;;17.99;76.89;101077.80;105654;1269;60944;-84
2022/07/07 00:18:23;;;;;;;1.50;1.20;;;;;;;17.93;76.95;101072.45;105623;1270;68021;-85
2022/07/07 00:20:52;;;;;;;2.80;1.30;;;;;;;17.90;76.92;101077.50;105580;1270;72077;-85
2022/07/07 00:23:21;;;;;;;5.20;1.40;;;;;;;17.88;77.20;101076.48;105476;1270;61854;-84
2022/07/07 00:25:50;;;;;;;1.80;1.40;;;;;;;17.86;77.19;101081.52;105714;1268;59573;-86
2022/07/07 00:28:19;;;;;;;1.90;1.40;;;;;;;17.85;77.08;101083.09;105801;1268;73541;-85
2022/07/07 00:30:48;;;;;;;2.90;1.50;;;;;;;17.78;77.54;101089.23;105562;1268;72816;-85
2022/07/07 00:33:17;;;;;;;2.20;1.30;;;;;;;17.79;77.52;101088.65;105482;1268;71003;-86
2022/07/07 00:35:45;;;;;;;1.70;1.40;;;;;;;17.75;77.70;101099.13;105727;1268;73808;-85
2022/07/07 00:38:14;;;;;;;2.00;1.30;;;;;;;17.71;77.51;101093.14;105604;1268;59852;-85
2022/07/07 00:40:43;;;;;;;1.90;1.40;;;;;;;17.69;77.87;101092.34;105639;1268;61042;-86
2022/07/07 00:43:15;;;;;;;1.90;1.40;;;;;;;17.63;78.25;101096.73;105793;1268;74461;-86
2022/07/07 00:45:49;;;;;;;2.10;1.30;;;;;;;17.67;78.04;101089.94;105786;1268;72671;-85
2022/07/07 00:48:20;;;;;;;3.40;1.50;;;;;;;17.65;78.29;101088.33;105466;1270;70521;-81
2022/07/07 00:50:49;;;;;;;2.00;1.20;;;;;;;17.71;78.10;101088.79;105606;1268;74468;-79
2022/07/07 00:53:17;;;;;;;2.30;1.30;;;;;;;17.81;77.61;101080.27;105560;1267;61958;-79
2022/07/07 00:55:46;;;;;;;3.30;1.60;;;;;;;17.83;77.52;101081.33;105399;1268;60946;-79
2022/07/07 00:58:15;;;;;;;2.80;1.70;;;;;;;17.78;77.72;101078.99;105587;1268;63779;-80
2022/07/07 01:00:44;;;;;;;2.10;1.40;;;;;;;17.78;77.67;101076.36;105535;1270;71416;-81
2022/07/07 01:03:13;;;;;;;3.00;1.50;;;;;;;17.83;77.44;101077.46;105523;1270;60146;-81
2022/07/07 01:05:48;;;;;;;1.90;1.50;;;;;;;17.79;77.57;101080.13;105185;1270;71354;-78
2022/07/07 01:08:17;;;;;;;2.80;1.60;;;;;;;17.81;77.31;101087.91;105583;1270;59654;-80
2022/07/07 01:10:46;;;;;;;2.00;1.50;;;;;;;17.72;77.74;101082.16;105674;1267;59410;-82
2022/07/07 01:13:15;;;;;;;4.20;1.50;;;;;;;17.65;77.93;101081.40;105658;1268;74991;-79
2022/07/07 01:15:44;;;;;;;2.50;1.70;;;;;;;17.69;77.87;101079.97;105620;1268;61752;-79
2022/07/07 01:18:13;;;;;;;3.00;1.70;;;;;;;17.66;77.94;101080.12;105618;1268;67934;-80
2022/07/07 01:20:47;;;;;;;2.50;1.60;;;;;;;17.58;78.37;101084.77;105615;1268;71846;-81
2022/07/07 01:23:16;;;;;;;1.90;1.40;;;;;;;17.63;77.95;101081.11;105805;1268;62929;-82
2022/07/07 01:25:44;;;;;;;1.40;1.30;;;;;;;17.65;77.96;101085.46;105556;1268;61008;-79
2022/07/07 01:28:13;;;;;;;4.30;1.80;;;;;;;17.68;77.78;101088.22;105807;1267;75131;-80
2022/07/07 01:30:42;;;;;;;1.80;1.60;;;;;;;17.65;77.95;101100.50;105808;1268;71068;-78
2022/07/07 01:33:11;;;;;;;2.30;1.70;;;;;;;17.58;78.16;101101.29;105718;1268;69776;-82
2022/07/07 01:35:39;;;;;;;2.10;1.60;;;;;;;17.58;78.01;101104.33;106658;1267;74576;-76
2022/07/07 01:38:08;;;;;;;3.40;1.70;;;;;;;17.58;78.15;101105.19;107471;1268;58429;-79
2022/07/07 01:40:37;;;;;;;3.30;1.80;;;;;;;17.57;78.76;101104.77;107116;1267;60699;-78
2022/07/07 01:43:06;;;;;;;2.60;1.60;;;;;;;17.58;78.34;101100.98;106716;1268;63614;-81
2022/07/07 01:45:35;;;;;;;3.40;1.80;;;;;;;17.60;78.13;101095.34;106278;1268;72379;-80
2022/07/07 01:48:03;;;;;;;2.10;1.50;;;;;;;17.60;78.40;101098.84;105836;1267;70560;-79
2022/07/07 01:50:32;;;;;;;2.90;1.60;;;;;;;17.57;78.29;101099.99;105745;1268;74368;-79
2022/07/07 01:53:02;;;;;;;3.20;2.30;;;;;;;17.57;78.55;101096.45;105632;1268;61473;-79
2022/07/07 01:55:30;;;;;;;6.80;2.00;;;;;;;17.49;78.64;101105.87;105664;1267;59919;-78
2022/07/07 01:57:59;;;;;;;2.50;1.90;;;;;;;17.53;77.99;101098.29;105579;1267;73808;-80
2022/07/07 02:00:28;;;;;;;3.70;2.00;;;;;;;17.55;78.39;101104.64;105522;1268;72129;-79
2022/07/07 02:02:56;;;;;;;2.00;1.70;;;;;;;17.55;78.65;101109.07;105666;1268;70626;-78
2022/07/07 02:05:25;;;;;;;3.10;1.50;;;;;;;17.48;78.76;101114.05;105536;1268;74124;-79
2022/07/07 02:07:54;;;;;;;2.80;1.80;;;;;;;17.56;78.38;101116.71;105440;1267;61699;-81
2022/07/07 02:13:33;;;;;;;3.30;2.20;;;;;;;17.54;78.65;101130.42;105424;1268;73993;-80
2022/07/07 02:16:02;;;;;;;3.70;2.10;;;;;;;17.50;78.97;101144.38;105636;1267;73456;-79
2022/07/07 02:18:35;;;;;;;3.30;2.20;;;;;;;17.52;79.04;101152.63;105462;1270;71806;-80
2022/07/07 02:21:07;;;;;;;5.10;2.40;;;;;;;17.53;79.15;101158.01;105753;1267;63922;-79
2022/07/07 02:23:37;;;;;;;5.00;2.30;;;;;;;17.58;79.00;101159.46;105589;1268;63019;-80
2022/07/07 02:26:06;;;;;;;3.80;2.10;;;;;;;17.62;79.00;101157.64;105506;1268;59081;-79
2022/07/07 02:28:35;;;;;;;3.70;2.60;;;;;;;17.67;78.84;101155.06;105629;1268;70766;-79
2022/07/07 02:31:05;;;;;;;3.30;2.60;;;;;;;17.68;78.87;101161.31;105497;1269;70533;-79
2022/07/07 02:33:35;;;;;;;3.60;2.60;;;;;;;17.67;79.31;101156.31;105596;1268;68011;-79
2022/07/07 02:36:07;;;;;;;3.10;2.70;;;;;;;17.67;79.67;101156.45;105644;1269;72153;-79
2022/07/07 02:38:37;;;;;;;5.60;3.00;;;;;;;17.73;79.20;101155.89;105623;1268;63334;-78
2022/07/07 02:41:06;;;;;;;5.00;3.00;;;;;;;17.80;79.14;101150.69;105664;1268;61105;-79
2022/07/07 02:43:35;;;;;;;5.40;2.90;;;;;;;17.79;79.11;101147.62;105654;1270;63539;-79
2022/07/07 02:46:04;;;;;;;4.50;2.90;;;;;;;17.84;79.08;101145.94;105770;1268;73261;-79
2022/07/07 02:48:33;;;;;;;4.80;3.10;;;;;;;17.84;78.66;101135.12;105772;1268;69564;-79
2022/07/07 02:51:02;;;;;;;4.70;3.10;;;;;;;17.86;78.86;101129.38;105814;1265;62607;-80
2022/07/07 02:53:31;;;;;;;3.60;2.40;;;;;;;17.85;78.98;101133.86;105726;1268;62947;-80
2022/07/07 02:56:00;;;;;;;3.90;2.90;;;;;;;17.84;79.03;101143.42;105919;1268;59561;-79
2022/07/07 02:58:29;;;;;;;4.00;2.80;;;;;;;17.83;78.81;101153.20;105748;1268;73799;-80
2022/07/07 03:00:57;;;;;;;4.00;2.90;;;;;;;17.81;79.13;101153.27;105599;1268;62058;-78
2022/07/07 03:03:27;;;;;;;8.10;3.00;;;;;;;17.78;79.23;101154.77;105757;1268;67934;-77
2022/07/07 03:05:56;;;;;;;4.80;3.00;;;;;;;17.77;79.26;101158.15;105471;1268;63642;-80
2022/07/07 03:08:25;;;;;;;3.50;3.00;;;;;;;17.75;79.36;101154.14;105600;1268;61303;-78
2022/07/07 03:10:59;;;;;;;5.00;2.90;;;;;;;17.71;79.66;101151.86;105708;1268;59883;-79
2022/07/07 03:13:28;;;;;;;3.90;2.50;;;;;;;17.81;79.23;101145.98;105784;1268;64827;-80
2022/07/07 03:15:58;;;;;;;4.10;3.20;;;;;;;17.85;78.97;101136.42;105586;1268;60994;-80
2022/07/07 03:18:27;;;;;;;5.90;2.80;;;;;;;17.87;78.80;101134.52;105479;1268;70758;-82
2022/07/07 03:20:56;;;;;;;4.40;3.10;;;;;;;17.90;78.65;101127.36;105508;1268;75804;-79
2022/07/07 03:23:25;;;;;;;5.60;2.90;;;;;;;17.95;78.19;101128.27;105727;1268;61737;-80
2022/07/07 03:25:55;;;;;;;4.70;2.70;;;;;;;17.97;78.01;101125.64;106192;1268;60519;-81
2022/07/07 03:28:24;;;;;;;5.00;2.60;;;;;;;17.99;78.19;101135.61;106112;1268;74334;-79
2022/07/07 03:30:52;;;;;;;4.50;3.20;;;;;;;18.02;77.93;101134.13;106019;1268;71996;-79
2022/07/07 03:33:21;;;;;;;5.50;2.80;;;;;;;17.94;78.61;101132.64;106094;1268;61421;-78
2022/07/07 03:35:55;;;;;;;3.80;3.00;;;;;;;17.84;79.56;101136.88;105938;1267;72995;-81
2022/07/07 03:38:24;;;;;;;4.50;3.20;;;;;;;17.88;79.45;101133.18;105785;1268;59639;-81
2022/07/07 03:40:53;;;;;;;4.20;3.20;;;;;;;17.86;79.65;101132.83;106017;1266;58698;-79
2022/07/07 03:43:29;;;;;;;7.20;3.40;;;;;;;17.81;80.02;101131.38;105908;1267;74987;-81
2022/07/07 03:45:59;;;;;;;4.80;3.40;;;;;;;17.82;79.83;101126.56;105961;1267;72946;-80
2022/07/07 03:48:32;;;;;;;3.50;2.90;;;;;;;17.64;81.68;101129.83;106336;1267;70321;-80
2022/07/07 03:51:01;;;;;;;4.50;3.10;;;;;;;17.62;81.56;101135.48;105995;1266;64802;-82
2022/07/07 03:53:30;;;;;;;3.90;3.00;;;;;;;17.71;80.93;101136.75;105770;1267;61247;-79
2022/07/07 03:56:00;;;;;;;4.00;3.40;;;;;;;17.68;81.15;101142.32;106032;1267;59651;-79
2022/07/07 03:58:28;;;;;;;4.30;3.40;;;;;;;17.70;80.71;101142.45;105877;1267;74479;-79
2022/07/07 04:00:59;;;;;;;3.70;3.20;;;;;;;17.63;81.30;101141.14;105888;1267;70984;-80
2022/07/07 04:03:29;;;;;;;4.30;3.20;;;;;;;17.62;81.49;101135.59;105784;1268;70634;-81
2022/07/07 04:05:58;;;;;;;6.00;3.20;;;;;;;17.55;82.14;101137.13;105855;1268;74133;-80
2022/07/07 04:08:27;;;;;;;3.60;3.30;;;;;;;17.62;81.71;101144.77;105911;1268;60980;-79
2022/07/07 04:10:55;;;;;;;5.60;3.50;;;;;;;17.51;82.58;101150.77;105907;1268;60846;-79
2022/07/07 04:13:25;;;;;;;5.10;3.30;;;;;;;17.62;82.02;101149.05;105824;1268;65293;-77
2022/07/07 04:15:56;;;;;;;4.20;3.40;;;;;;;17.82;81.29;101150.47;105862;1268;60956;-77
2022/07/07 04:18:25;;;;;;;5.10;3.50;;;;;;;17.99;80.66;101161.71;105752;1268;69190;-76
2022/07/07 04:21:01;;;;;;;4.60;2.80;;;;;;;17.95;80.48;101172.51;106218;1268;72952;-85
2022/07/07 04:23:31;;;;;;;3.90;3.00;;;;;;;17.93;80.57;101176.21;106830;1266;58291;-85
2022/07/07 04:26:01;;;;;;;4.70;3.20;;;;;;;17.92;80.58;101181.55;106563;1268;59648;-85
2022/07/07 04:28:33;;;;;;;8.30;3.80;;;;;;;17.84;81.21;101184.31;106727;1267;71712;-84
2022/07/07 04:31:05;;;;;;;3.10;2.40;;;;;;;17.86;81.10;101186.94;106769;1268;71658;-76
2022/07/07 04:33:34;;;;;;;2.80;2.60;;;;;;;17.86;81.00;101187.81;105779;1268;71315;-78
2022/07/07 04:36:03;;;;;;;3.80;3.10;;;;;;;17.83;81.28;101191.23;106057;1268;73576;-77
2022/07/07 04:38:32;;;;;;;4.20;3.30;;;;;;;17.88;80.95;101185.67;105850;1268;58609;-78
2022/07/07 04:41:00;;;;;;;7.80;3.20;;;;;;;17.92;80.67;101193.89;105858;1268;60812;-78
2022/07/07 04:43:29;;;;;;;4.80;2.90;;;;;;;17.92;80.86;101190.96;105766;1270;64787;-78
2022/07/07 04:45:58;;;;;;;3.90;2.90;;;;;;;17.99;80.61;101194.10;106003;1268;61751;-79
2022/07/07 04:48:27;;;;;;;4.90;3.40;;;;;;;18.01;80.50;101189.50;105741;1268;59451;-78
2022/07/07 04:50:56;;;;;;;4.80;3.50;;;;;;;17.99;80.70;101184.61;105828;1268;63416;-76
2022/07/07 04:53:25;;;;;;;5.60;3.60;;;;;;;17.97;80.72;101183.57;105884;1268;59722;-80
2022/07/07 04:55:54;;;;;;;4.00;3.30;;;;;;;17.86;81.49;101181.67;106051;1268;60676;-78
2022/07/07 04:58:23;;;;;;;5.50;3.40;;;;;;;17.68;82.94;101182.93;106316;1268;63557;-78
2022/07/07 05:00:52;;;;;;;5.80;3.60;;;;;;;17.71;82.15;101176.34;106262;1268;60961;-77
2022/07/07 05:03:28;;;;;;;5.50;3.70;;;;;;;17.68;82.19;101165.52;105970;1270;69889;-79
2022/07/07 05:05:58;;;;;;;7.30;4.40;;;;;;;17.71;81.78;101156.79;105792;1268;73295;-78
2022/07/07 05:08:29;;;;;;;6.30;4.10;;;;;;;17.67;82.12;101155.53;105951;1268;59604;-78
2022/07/07 05:10:58;;;;;;;7.60;3.40;;;;;;;17.59;82.30;101155.10;105755;1266;61765;-79
2022/07/07 05:13:26;;;;;;;4.40;3.10;;;;;;;17.61;81.80;101145.43;105691;1268;75121;-77
2022/07/07 05:15:56;;;;;;;7.20;3.60;;;;;;;17.53;82.10;101147.08;105700;1267;72984;-78
2022/07/07 05:18:24;;;;;;;4.10;2.90;;;;;;;17.52;82.08;101143.48;105697;1268;70383;-79
2022/07/07 05:20:53;;;;;;;3.50;3.00;;;;;;;17.50;82.23;101151.61;105608;1268;63359;-79
2022/07/07 05:23:22;;;;;;;3.80;3.00;;;;;;;17.43;82.40;101153.63;105746;1268;58348;-79
2022/07/07 05:25:52;;;;;;;5.70;2.70;;;;;;;17.50;82.50;101157.24;105591;1268;59550;-77
2022/07/07 05:28:21;;;;;;;6.40;3.00;;;;;;;17.51;82.31;101157.27;105553;1270;72022;-76
2022/07/07 05:30:50;;;;;;;4.50;2.70;;;;;;;17.46;82.42;101159.84;105604;1270;62107;-84
2022/07/07 05:33:20;;;;;;;5.70;3.20;;;;;;;17.48;82.31;101159.64;106679;1270;59674;-84
2022/07/07 05:35:50;;;;;;;7.00;3.00;;;;;;;17.48;82.79;101166.38;106653;1270;72055;-88
2022/07/07 05:38:21;;;;;;;4.50;3.40;;;;;;;17.52;82.53;101165.27;106882;1270;58958;-88
2022/07/07 05:41:14;;;;;;;3.30;3.00;;;;;;;17.52;82.24;101161.25;107180;1269;59073;-88
2022/07/07 05:43:45;;;;;;;4.90;2.80;;;;;;;17.45;82.96;101157.83;107445;1264;72660;-89
2022/07/07 05:46:15;;;;;;;8.10;2.90;;;;;;;17.54;82.86;101157.56;107591;1263;72413;-89
2022/07/07 05:52:26;;;;;;;3.20;2.70;;;;;;;17.50;83.12;101162.14;106190;1260;73197;-88
2022/07/07 05:54:56;;;;;;;;;;;;;;;17.46;82.79;101158.98;107318;1276;61214;-88
2022/07/07 05:57:27;;;;;;;4.60;3.00;;;;;;;17.51;82.95;101159.05;107308;1273;61228;-89
2022/07/07 06:00:30;;;;;;;3.60;3.00;;;;;;;17.56;83.00;101165.23;107290;1265;63697;31
2022/07/07 06:03:09;;;;;;;4.80;3.30;;;;;;;17.55;82.85;101171.55;107713;1261;71673;-89
2022/07/07 06:09:54;;;;;;;5.10;3.20;;;;;;;17.68;82.06;101169.55;100521;1273;72215;-90
2022/07/07 06:12:29;;;;;;;3.50;2.70;;;;;;;17.76;81.77;101174.00;107053;1279;60671;-89
2022/07/07 06:15:17;;;;;;;5.00;2.80;;;;;;;17.70;81.49;101164.48;106955;1279;59135;-88
2022/07/07 06:18:05;;;;;;;3.40;2.40;;;;;;;17.80;81.33;101180.27;107107;1278;73883;-88
2022/07/07 06:21:07;;;;;;;4.00;2.40;;;;;;;17.79;80.81;101167.71;106651;1281;70711;-90
2022/07/07 06:23:53;;;;;;;5.00;3.10;;;;;;;17.85;80.79;101179.11;106927;1281;69972;-89
2022/07/07 06:26:36;;;;;;;4.60;2.50;;;;;;;17.88;80.37;101175.60;106616;1281;73252;-89
2022/07/07 06:29:15;;;;;;;3.10;2.40;;;;;;;17.84;80.49;101179.05;106541;1281;59298;-87
2022/07/07 06:31:54;;;;;;;3.80;2.50;;;;;;;17.88;80.03;101182.34;106790;1280;61078;-87
2022/07/07 06:34:29;;;;;;;3.60;2.80;;;;;;;17.97;79.27;101184.40;106858;1281;74831;-88
2022/07/07 06:37:36;;;;;;;3.40;2.40;;;;;;;18.05;78.88;101184.55;106677;1282;61811;-89
2022/07/07 06:40:46;;;;;;;4.10;2.30;;;;;;;18.12;78.52;101183.23;106728;1281;69971;-87
2022/07/07 06:43:38;;;;;;;2.90;2.20;;;;;;;18.23;77.97;101185.64;106873;1276;73732;-88
2022/07/07 06:46:27;;;;;;;4.90;2.30;;;;;;;18.32;77.24;101189.35;107428;1266;61705;-89
2022/07/07 06:49:04;;;;;;;2.80;2.20;;;;;;;18.44;76.54;101181.85;107576;1270;61388;-89
2022/07/07 06:51:52;;;;;;;2.50;1.90;;;;;;;18.52;76.09;101179.39;107649;1270;73377;-90
2022/07/07 06:55:10;;;;;;;2.50;2.00;;;;;;;18.68;75.50;101180.69;107736;1270;62448;-90
2022/07/07 06:58:42;;;;;;;2.40;1.70;;;;;;;18.77;74.70;101177.73;107227;1276;70568;-86
2022/07/07 07:01:40;;;;;;;3.40;2.00;;;;;;;18.96;74.29;101177.17;107295;1276;73914;-88
2022/07/07 07:04:51;;;;;;;;;;;;;;;;;;;;;
2022/07/07 07:09:07;;;;;;;3.90;2.00;;;;;;;19.22;72.54;101182.69;107810;1263;57837;-87
2022/07/07 07:11:45;;;;;;;2.40;1.80;;;;;;;19.36;72.33;101184.00;107747;1263;64699;-89
2022/07/07 07:15:39;;;;;;;4.10;2.00;;;;;;;19.50;72.08;101186.86;107809;1264;61814;-84
2022/07/07 07:18:56;;;;;;;3.60;1.70;;;;;;;19.66;71.09;101189.13;107900;1261;59601;-89
2022/07/07 07:21:51;;;;;;;3.30;1.80;;;;;;;19.76;70.45;101187.94;105998;1273;64379;-72
2022/07/07 07:24:20;;;;;;;2.60;1.70;;;;;;;19.81;70.29;101185.28;105549;1273;59678;-72
2022/07/07 07:26:49;;;;;;;3.80;2.10;;;;;;;19.90;69.48;101188.27;105524;1273;59522;-72
2022/07/07 07:29:18;;;;;;;4.30;1.80;;;;;;;19.92;68.88;101188.17;105526;1272;64363;-72
2022/07/07 07:31:46;;;;;;;5.90;2.00;;;;;;;19.97;68.58;101193.20;105503;1272;71674;-73
2022/07/07 07:34:16;;;;;;;4.30;2.10;;;;;;;19.97;68.84;101193.08;105481;1273;71817;-73
2022/07/07 07:36:45;;;;;;;4.20;1.90;;;;;;;19.89;67.82;101197.88;105482;1273;73823;-73
2022/07/07 07:39:13;;;;;;;4.20;1.80;;;;;;;19.87;67.61;101197.81;105472;1271;61162;-74
2022/07/07 07:41:43;;;;;;;2.50;1.70;;;;;;;19.83;67.47;101197.59;105510;1272;57968;-72
2022/07/07 07:44:12;;;;;;;1.70;1.60;;;;;;;19.75;67.06;101200.91;105432;1273;63805;-73
2022/07/07 07:46:41;;;;;;;2.70;1.70;;;;;;;19.57;67.33;101201.20;105501;1273;61856;-71
2022/07/07 07:49:10;;;;;;;2.30;1.80;;;;;;;19.44;67.68;101195.46;105580;1272;68786;-74
2022/07/07 07:51:38;;;;;;;3.80;1.80;;;;;;;19.39;68.53;101198.09;105463;1273;73278;-72
2022/07/07 07:54:07;;;;;;;2.30;1.60;;;;;;;19.40;68.86;101189.72;105454;1273;59604;-72
2022/07/07 07:56:36;;;;;;;4.90;2.10;;;;;;;19.35;68.53;101187.01;105433;1273;59830;-72
2022/07/07 07:59:05;;;;;;;2.50;1.70;;;;;;;19.46;68.01;101186.11;105433;1271;74644;-71
2022/07/07 08:01:33;;;;;;;3.60;1.80;;;;;;;19.50;67.34;101188.35;105252;1273;62898;-73
2022/07/07 08:04:03;;;;;;;1.80;1.60;;;;;;;19.50;66.90;101191.36;105590;1273;69961;-73
2022/07/07 08:06:32;;;;;;;3.00;1.80;;;;;;;19.40;66.71;101192.20;105400;1273;74644;-74
2022/07/07 08:09:01;;;;;;;3.20;1.60;;;;;;;19.44;67.31;101192.31;105182;1276;59813;-71
2022/07/07 08:11:30;;;;;;;4.80;2.10;;;;;;;19.34;67.90;101192.04;105284;1273;59634;-73
2022/07/07 08:13:59;;;;;;;2.60;2.10;;;;;;;19.37;68.59;101189.13;105559;1275;64382;-74
2022/07/07 08:16:28;;;;;;;3.00;1.90;;;;;;;19.38;68.60;101191.33;105697;1273;60940;-74
2022/07/07 08:18:57;;;;;;;3.40;1.90;;;;;;;19.25;69.13;101191.98;105554;1273;59396;-74
2022/07/07 08:21:26;;;;;;;4.60;1.80;;;;;;;19.21;69.30;101190.56;105474;1273;63439;-76
2022/07/07 08:23:55;;;;;;;3.50;2.10;;;;;;;18.96;70.97;101195.38;105600;1270;61452;-74
2022/07/07 08:26:24;;;;;;;2.50;1.90;;;;;;;18.91;70.97;101193.41;105504;1270;61807;-74
2022/07/07 08:28:53;;;;;;;2.60;2.00;;;;;;;18.89;71.28;101192.80;105544;1270;75428;-76
2022/07/07 08:31:22;;;;;;;3.80;2.20;;;;;;;18.82;72.70;101198.86;105546;1269;60786;-74
2022/07/07 08:33:51;;;;;;;3.00;2.00;;;;;;;18.79;73.83;101199.17;105530;1270;70757;-73
2022/07/07 08:36:19;;;;;;;4.60;2.50;;;;;;;18.74;73.98;101203.19;105505;1270;73785;-75
2022/07/07 08:38:48;;;;;;;3.30;2.30;;;;;;;18.73;73.83;101202.29;105546;1270;59726;-75
2022/07/07 08:41:17;;;;;;;2.90;2.20;;;;;;;18.78;73.49;101206.00;105538;1269;61399;-74
2022/07/07 08:43:46;;;;;;;5.20;2.10;;;;;;;18.74;73.87;101204.96;105547;1270;75008;-75
2022/07/07 08:46:15;;;;;;;3.60;2.40;;;;;;;18.72;73.54;101204.86;105566;1270;72008;-75
2022/07/07 08:48:44;;;;;;;3.60;2.30;;;;;;;18.69;74.01;101212.20;105519;1270;69778;-74
2022/07/07 08:51:15;;;;;;;2.40;1.90;;;;;;;18.67;73.92;101214.67;105568;1270;73385;-75
2022/07/07 08:53:48;;;;;;;3.20;2.40;;;;;;;18.68;74.24;101213.39;105465;1270;59658;-74
2022/07/07 08:56:19;;;;;;;4.10;2.30;;;;;;;18.72;74.76;101218.23;105537;1270;58321;-74
2022/07/07 08:58:49;;;;;;;2.70;2.20;;;;;;;18.74;74.91;101217.16;105517;1270;74518;-74
2022/07/07 09:01:35;;;;;;;4.00;2.40;;;;;;;18.72;75.66;101217.50;105481;1270;70776;-73
2022/07/07 09:04:05;;;;;;;3.20;2.00;;;;;;;18.72;75.80;101221.61;105523;1273;60132;-74
2022/07/07 09:06:34;;;;;;;2.60;1.90;;;;;;;18.79;74.88;101216.77;105375;1273;74159;-74
2022/07/07 09:09:03;;;;;;;4.10;2.30;;;;;;;18.82;74.71;101216.92;105441;1272;62444;-74
2022/07/07 09:11:34;;;;;;;3.40;2.00;;;;;;;18.82;74.80;101213.55;105527;1273;59570;-73
2022/07/07 09:14:16;;;;;;;3.00;2.00;;;;;;;18.90;74.41;101217.33;105442;1272;73571;-73
2022/07/07 09:16:44;;;;;;;3.50;2.00;;;;;;;18.88;73.16;101218.41;105345;1273;72798;-73
2022/07/07 09:19:21;;;;;;;3.00;1.90;;;;;;;18.87;73.92;101214.89;105373;1270;69853;-74
2022/07/07 09:21:51;;;;;;;2.40;1.60;;;;;;;18.97;73.97;101212.02;105509;1270;64020;-74
2022/07/07 09:24:20;;;;;;;2.20;1.70;;;;;;;18.94;73.56;101211.15;105375;1271;59618;-74
2022/07/07 09:26:56;;;;;;;2.70;1.90;;;;;;;19.00;73.35;101211.92;105564;1270;57827;-72
2022/07/07 09:29:27;;;;;;;3.10;1.60;;;;;;;19.05;73.13;101214.46;105546;1270;73777;-72
2022/07/07 09:32:04;;;;;;;4.80;1.80;;;;;;;19.09;72.51;101217.55;105507;1270;72928;-72
2022/07/07 09:34:37;;;;;;;2.90;1.60;;;;;;;19.15;72.22;101219.39;105560;1270;61749;-75
2022/07/07 09:39:57;;;;;;;2.80;2.00;;;;;;;19.26;72.73;101222.54;105553;1270;59696;-74
2022/07/07 09:42:38;;;;;;;3.00;2.10;;;;;;;19.38;72.36;101222.03;105595;1270;59713;-76
2022/07/07 09:45:11;;;;;;;2.60;1.60;;;;;;;19.41;72.33;101227.58;105554;1270;63310;-74
2022/07/07 09:47:41;;;;;;;3.70;1.80;;;;;;;19.42;71.61;101224.14;105507;1270;72353;-76
2022/07/07 09:50:13;;;;;;;2.80;1.80;;;;;;;19.38;71.49;101226.66;105483;1271;71240;-74
2022/07/07 09:52:47;;;;;;;;;;;;;;;19.30;72.05;101221.47;105525;1270;65628;-75
2022/07/07 09:55:16;;;;;;;3.30;1.90;;;;;;;19.20;72.49;101220.38;105519;1270;59648;-76
2022/07/07 09:57:44;;;;;;;3.60;1.90;;;;;;;19.19;73.10;101221.16;105441;1270;60548;-74
2022/07/07 10:00:15;;;;;;;4.00;2.10;;;;;;;19.19;74.05;101219.54;105481;1270;74335;-76
2022/07/07 10:02:45;;;;;;;3.70;2.10;;;;;;;19.26;73.75;101221.65;105545;1273;61499;-75
2022/07/07 10:05:17;;;;;;;4.80;2.20;;;;;;;19.31;73.84;101220.29;105530;1270;61400;-75
2022/07/07 10:07:52;;;;;;;2.90;2.50;;;;;;;19.34;74.64;101223.33;105440;1270;63434;-75
2022/07/07 10:10:22;;;;;;;3.20;2.50;;;;;;;19.53;74.85;101223.52;105473;1270;59743;-73
2022/07/07 10:12:53;;;;;;;5.00;2.70;;;;;;;19.68;74.68;101220.97;105477;1270;61841;-73
2022/07/07 10:15:23;;;;;;;5.30;2.70;;;;;;;19.84;74.28;101223.17;105382;1270;73309;-75
2022/07/07 10:17:52;;;;;;;3.60;3.10;;;;;;;19.83;73.98;101222.96;105579;1270;62864;-74
2022/07/07 10:20:21;;;;;;;4.30;2.90;;;;;;;19.79;73.61;101224.23;105538;1270;70726;-75
2022/07/07 10:22:51;;;;;;;3.10;2.50;;;;;;;19.66;73.35;101214.95;105669;1270;64909;-76
2022/07/07 10:25:20;;;;;;;3.50;2.60;;;;;;;19.61;73.27;101217.95;105514;1272;62412;-75
2022/07/07 10:27:53;;;;;;;3.70;2.70;;;;;;;19.63;73.41;101218.77;105543;1270;61800;-72
2022/07/07 10:30:31;;;;;;;4.00;2.40;;;;;;;19.71;73.74;101221.66;105532;1270;74786;-75
2022/07/07 10:33:04;;;;;;;2.80;2.50;;;;;;;19.85;73.29;101222.91;105480;1273;62224;-75
2022/07/07 10:35:45;;;;;;;3.30;2.20;;;;;;;19.95;71.65;101233.01;105531;1270;69682;-74
2022/07/07 10:38:17;;;;;;;2.50;2.30;;;;;;;19.87;71.18;101226.54;105555;1270;73876;-74
2022/07/07 10:40:54;;;;;;;2.90;2.30;;;;;;;20.01;70.60;101226.36;105532;1270;59660;-73
2022/07/07 10:43:33;;;;;;;2.60;2.20;;;;;;;20.12;70.50;101225.52;105495;1270;59023;-73
2022/07/07 10:46:09;;;;;;;6.40;2.50;;;;;;;20.24;69.69;101220.87;105504;1271;63861;-74
2022/07/07 10:48:46;;;;;;;2.70;2.10;;;;;;;20.26;70.12;101223.56;105455;1273;73634;-77
2022/07/07 10:51:27;;;;;;;2.80;1.90;;;;;;;20.20;69.88;101218.91;105517;1270;72083;-74
2022/07/07 10:54:10;;;;;;;2.60;1.90;;;;;;;20.24;69.70;101222.07;105413;1273;74570;-73
2022/07/07 10:56:51;;;;;;;4.40;2.30;;;;;;;20.12;69.27;101225.54;105512;1270;60425;-75
2022/07/07 10:59:22;;;;;;;4.70;2.50;;;;;;;19.91;70.56;101218.77;105466;1270;60485;-75
2022/07/07 11:02:02;;;;;;;5.50;2.50;;;;;;;20.11;69.98;101213.83;105575;1269;75114;-75
2022/07/07 11:04:43;;;;;;;3.60;2.70;;;;;;;20.12;69.88;101213.14;105547;1270;61242;-75
2022/07/07 11:07:22;;;;;;;6.60;2.60;;;;;;;20.13;70.38;101211.25;105456;1273;70700;-75
2022/07/07 11:10:03;;;;;;;2.70;2.10;;;;;;;20.19;69.74;101214.58;105496;1270;63035;-74
2022/07/07 11:12:48;;;;;;;3.30;2.40;;;;;;;20.28;69.02;101222.73;105460;1270;61638;-75
2022/07/07 11:15:30;;;;;;;3.60;2.50;;;;;;;20.33;68.90;101224.77;105484;1270;61701;-76
2022/07/07 11:18:05;;;;;;;3.10;2.20;;;;;;;20.30;68.87;101225.63;105534;1270;64432;-75
2022/07/07 11:20:34;;;;;;;2.60;2.20;;;;;;;20.09;70.20;101221.64;105844;1270;71065;-76
2022/07/07 11:23:08;;;;;;;2.70;2.30;;;;;;;20.07;70.73;101221.44;105959;1273;70480;-75
2022/07/07 11:25:39;;;;;;;4.60;2.40;;;;;;;20.26;69.40;101220.11;105632;1273;62925;-76
2022/07/07 11:28:10;;;;;;;5.80;2.40;;;;;;;20.26;69.13;101220.54;105660;1270;59602;-75
2022/07/07 11:30:40;;;;;;;2.80;2.50;;;;;;;20.21;69.32;101214.34;105571;1270;61495;-76
2022/07/07 11:33:10;;;;;;;4.70;2.60;;;;;;;20.30;68.95;101212.50;105577;1270;64427;-73
2022/07/07 11:35:40;;;;;;;3.30;2.50;;;;;;;20.31;68.96;101210.45;105337;1270;72432;-76
2022/07/07 11:38:11;;;;;;;4.80;2.20;;;;;;;20.29;68.63;101210.14;105398;1270;59802;-73
2022/07/07 11:40:42;;;;;;;2.70;2.10;;;;;;;20.36;68.41;101203.73;105427;1270;63622;-76
2022/07/07 11:43:23;;;;;;;5.60;3.70;;;;;;;20.50;68.43;101202.84;105446;1273;59669;-75
2022/07/07 11:45:54;;;;;;;2.40;1.90;;;;;;;20.52;68.08;101196.95;105549;1270;59652;-76
2022/07/07 11:48:22;;;;;;;2.50;2.10;;;;;;;20.56;67.16;101193.37;105443;1271;63734;-76
2022/07/07 11:50:51;;;;;;;2.80;2.30;;;;;;;20.53;67.83;101192.55;105438;1270;61770;-74
2022/07/07 11:53:22;;;;;;;3.30;2.20;;;;;;;20.56;68.50;101190.61;105566;1270;59605;-74
2022/07/07 11:55:51;;;;;;;2.50;1.50;;;;;;;20.46;66.89;101186.78;105441;1270;73479;-75
2022/07/07 11:58:19;;;;;;;1.90;1.70;;;;;;;20.48;65.89;101180.18;105537;1270;61253;-73
2022/07/07 12:00:56;;;;;;;2.50;1.40;;;;;;;20.46;65.04;101170.13;105516;1270;59532;-74